Northwest, Indiana
Current Conditions -  °F | °C
As of 4:55 AM on Monday 22 Dec 2014 (Local Time) from KDCY Reporting Station
Overcast Overcast  
Wind Chill: -2°   Ceiling: 3200
Heat Index:   Visibility: 10mi
Dew Point: -2°   Wind: 5mph
Humidity: 85%   Direction: 120°ESE
Pressure: 29.95"   Gusts: NA
Location:  38.6165°N, 86.6265°W
Report Text: KDCY 220955Z AUTO 12004KT 10SM OVC032 01/M02 A2995 RMK AO2 T00061017
Loading
Personal Weather Stations






























Interactive Weather Map New forecast layout! Learn more

10-Day Weather Forecast

Advertisements
Track Severe Weather on mobile